Home PIREPS Pireps

Flight BEL2283A

  • Submitted By: Vincent Fourni
  • Departure Airport: Bruxelles National (EBBR)
  • Arrival Airport: Oslo Airport, Gardermoen (ENGM)
  • Aircraft: BAE AVRO RJ1 (OO-DWC)
  • Flight Time: 01.50
  • Date Submitted: 16/01/2018
  • Status: Accepted
Flight Details
Gross Revenue:
(84 load / € 150.00 per unit
€ 12,600.00
Fuel Cost:
(10605 fuel used @ 5.1 / unit)
€ 54,085.50

Additional Log Information:

View Log

Aircraft Used in flight is PMDG 777-200LR PMDG Brussels
13:46 Brakes are On
13:52 Brakes are Released
13:55 Brakes are On
13:57 Brakes are Released
14:02 You Took off @ 195 Knots and Flaps at Position 3
Departure Weather
EBBR 161250Z 27017KT 9999 FEW032 BKN036 07/00 Q0996 NOSIGrn
14:02 Landing Gear Up @ 213 Knots and 470 Feet
14:04 Below 10000 feet you are not allowed to go over 250 knots
15:27 Below FL100 you need to turn on the landing lights
15:33 Landing Gear Down @ 202 Knots and 3280 Feet
15:36 You Landed @ 127 Knots and with -350 Vertical Speed
Arrival Weather
ENGM 161420Z VRB04KT 1200 R19R/1900U R01R/1600N -SN SCT002 BKN006 M00/M01 Q0974 TEMPO 1500 SN BKN004rn
15:36 Paused
15:38 Unpaused
15:38 Brakes are On
15:39 Brussels Bel-Track1.0.1.2

Route Map

Corporate About Us Our Team Vacancies Information Fleet Route Network Rules and Regulations Operations Flight Schedules Event Center Tours Partners IVAO Vatsim Acars dev FSCB

fb Users Online Belgium Dominique Dory, South Africa Marc Toussaint,
2 Pilot(s) and 139 Guest(s) Online
CMS by phpVMS - Design by Crazycreatives.com - Copyright © 2020 - Brussels Airlines Virtual